sensor_id;sensor_type;location;lat;lon;timestamp;pressure;altitude;pressure_sealevel;temperature;humidity
11268;BME280;72685;47.474;9.416;2024-02-23T00:02:24;93770.50;;;5.24;100.00
11268;BME280;72685;47.474;9.416;2024-02-23T00:04:50;93776.25;;;5.26;100.00
11268;BME280;72685;47.474;9.416;2024-02-23T00:07:15;93771.59;;;5.32;100.00
11268;BME280;72685;47.474;9.416;2024-02-23T00:09:40;93761.13;;;5.44;100.00
11268;BME280;72685;47.474;9.416;2024-02-23T00:12:06;93776.44;;;5.39;100.00
11268;BME280;72685;47.474;9.416;2024-02-23T00:14:33;93761.00;;;5.41;100.00
11268;BME280;72685;47.474;9.416;2024-02-23T00:17:02;93761.44;;;5.51;100.00
11268;BME280;72685;47.474;9.416;2024-02-23T00:19:29;93760.16;;;5.66;100.00
11268;BME280;72685;47.474;9.416;2024-02-23T00:21:55;93764.88;;;5.52;100.00
11268;BME280;72685;47.474;9.416;2024-02-23T00:24:20;93762.50;;;5.59;100.00
11268;BME280;72685;47.474;9.416;2024-02-23T00:26:46;93767.94;;;5.62;100.00
11268;BME280;72685;47.474;9.416;2024-02-23T00:29:11;93765.63;;;5.61;100.00
11268;BME280;72685;47.474;9.416;2024-02-23T00:31:40;93758.31;;;5.58;99.55
11268;BME280;72685;47.474;9.416;2024-02-23T00:34:10;93744.72;;;5.59;98.99
11268;BME280;72685;47.474;9.416;2024-02-23T00:36:41;93747.38;;;5.68;96.04
11268;BME280;72685;47.474;9.416;2024-02-23T00:39:07;93745.31;;;5.73;95.26
11268;BME280;72685;47.474;9.416;2024-02-23T00:41:34;93737.66;;;5.80;92.19
11268;BME280;72685;47.474;9.416;2024-02-23T00:43:59;93747.00;;;5.78;94.25
11268;BME280;72685;47.474;9.416;2024-02-23T00:46:24;93746.84;;;5.74;94.37
11268;BME280;72685;47.474;9.416;2024-02-23T00:48:50;93753.13;;;5.70;95.14
11268;BME280;72685;47.474;9.416;2024-02-23T00:51:16;93750.28;;;5.75;92.52
11268;BME280;72685;47.474;9.416;2024-02-23T00:53:41;93756.84;;;5.77;91.51
11268;BME280;72685;47.474;9.416;2024-02-23T00:56:06;93749.03;;;5.90;89.30
11268;BME280;72685;47.474;9.416;2024-02-23T00:58:32;93750.44;;;5.78;92.00
11268;BME280;72685;47.474;9.416;2024-02-23T01:00:57;93758.38;;;5.96;87.30
11268;BME280;72685;47.474;9.416;2024-02-23T01:03:22;93758.53;;;5.91;90.40
11268;BME280;72685;47.474;9.416;2024-02-23T01:05:48;93762.41;;;5.84;88.94
11268;BME280;72685;47.474;9.416;2024-02-23T01:08:13;93765.25;;;5.88;87.52
11268;BME280;72685;47.474;9.416;2024-02-23T01:10:38;93764.16;;;5.89;87.27
11268;BME280;72685;47.474;9.416;2024-02-23T01:13:04;93774.56;;;5.94;86.31
11268;BME280;72685;47.474;9.416;2024-02-23T01:15:30;93775.69;;;5.93;86.53
11268;BME280;72685;47.474;9.416;2024-02-23T01:17:56;93779.22;;;6.06;84.18
11268;BME280;72685;47.474;9.416;2024-02-23T01:20:21;93776.66;;;6.18;81.04
11268;BME280;72685;47.474;9.416;2024-02-23T01:22:47;93793.38;;;6.18;81.03
11268;BME280;72685;47.474;9.416;2024-02-23T01:25:12;93786.59;;;6.29;78.55
11268;BME280;72685;47.474;9.416;2024-02-23T01:27:41;93788.19;;;6.22;81.05
11268;BME280;72685;47.474;9.416;2024-02-23T01:30:06;93788.22;;;6.13;80.87
11268;BME280;72685;47.474;9.416;2024-02-23T01:32:32;93808.91;;;6.28;78.90
11268;BME280;72685;47.474;9.416;2024-02-23T01:34:57;93818.13;;;6.22;79.94
11268;BME280;72685;47.474;9.416;2024-02-23T01:37:23;93804.75;;;6.19;79.82
11268;BME280;72685;47.474;9.416;2024-02-23T01:39:48;93792.69;;;6.30;77.69
11268;BME280;72685;47.474;9.416;2024-02-23T01:42:13;93791.75;;;6.26;79.86
11268;BME280;72685;47.474;9.416;2024-02-23T01:44:39;93801.47;;;6.22;79.48
11268;BME280;72685;47.474;9.416;2024-02-23T01:47:04;93795.97;;;6.27;78.93
11268;BME280;72685;47.474;9.416;2024-02-23T01:49:30;93810.50;;;6.21;80.23
11268;BME280;72685;47.474;9.416;2024-02-23T01:51:58;93826.22;;;6.34;77.62
11268;BME280;72685;47.474;9.416;2024-02-23T01:54:24;93829.50;;;6.23;80.45
11268;BME280;72685;47.474;9.416;2024-02-23T01:56:50;93826.28;;;6.17;81.39
11268;BME280;72685;47.474;9.416;2024-02-23T01:59:16;93824.84;;;6.20;79.50
11268;BME280;72685;47.474;9.416;2024-02-23T02:01:45;93830.94;;;6.20;80.80
11268;BME280;72685;47.474;9.416;2024-02-23T02:04:10;93837.50;;;6.14;82.11
11268;BME280;72685;47.474;9.416;2024-02-23T02:06:36;93840.16;;;6.14;81.29
11268;BME280;72685;47.474;9.416;2024-02-23T02:09:02;93835.16;;;6.21;80.00
11268;BME280;72685;47.474;9.416;2024-02-23T02:11:27;93837.56;;;6.06;83.68
11268;BME280;72685;47.474;9.416;2024-02-23T02:13:52;93845.66;;;6.01;85.37
11268;BME280;72685;47.474;9.416;2024-02-23T02:16:18;93842.84;;;5.97;84.84
11268;BME280;72685;47.474;9.416;2024-02-23T02:18:43;93858.31;;;5.78;89.46
11268;BME280;72685;47.474;9.416;2024-02-23T02:21:11;93847.31;;;5.42;96.89
11268;BME280;72685;47.474;9.416;2024-02-23T02:23:37;93862.38;;;4.98;100.00
11268;BME280;72685;47.474;9.416;2024-02-23T02:26:03;93840.34;;;4.46;100.00
11268;BME280;72685;47.474;9.416;2024-02-23T02:28:29;93862.66;;;4.23;100.00
11268;BME280;72685;47.474;9.416;2024-02-23T02:30:54;93864.09;;;3.98;100.00
11268;BME280;72685;47.474;9.416;2024-02-23T02:33:20;93867.78;;;3.89;100.00
11268;BME280;72685;47.474;9.416;2024-02-23T02:35:46;93866.09;;;3.70;100.00
11268;BME280;72685;47.474;9.416;2024-02-23T02:38:11;93894.81;;;3.63;100.00
11268;BME280;72685;47.474;9.416;2024-02-23T02:40:37;93869.91;;;3.56;100.00
11268;BME280;72685;47.474;9.416;2024-02-23T02:43:03;93855.09;;;3.46;100.00
11268;BME280;72685;47.474;9.416;2024-02-23T02:45:29;93857.53;;;3.43;100.00
11268;BME280;72685;47.474;9.416;2024-02-23T02:47:54;93864.22;;;3.40;100.00
11268;BME280;72685;47.474;9.416;2024-02-23T02:50:19;93849.03;;;3.46;100.00
11268;BME280;72685;47.474;9.416;2024-02-23T02:52:45;93853.53;;;3.45;100.00
11268;BME280;72685;47.474;9.416;2024-02-23T02:55:10;93853.34;;;3.42;100.00
11268;BME280;72685;47.474;9.416;2024-02-23T02:57:35;93857.53;;;3.43;100.00
11268;BME280;72685;47.474;9.416;2024-02-23T03:00:02;93862.78;;;3.34;100.00
11268;BME280;72685;47.474;9.416;2024-02-23T03:02:30;93837.16;;;3.35;100.00
11268;BME280;72685;47.474;9.416;2024-02-23T03:04:56;93845.69;;;3.32;100.00
11268;BME280;72685;47.474;9.416;2024-02-23T03:07:21;93857.13;;;3.27;100.00
11268;BME280;72685;47.474;9.416;2024-02-23T03:09:47;93854.97;;;3.29;100.00
11268;BME280;72685;47.474;9.416;2024-02-23T03:12:12;93854.84;;;3.34;100.00
11268;BME280;72685;47.474;9.416;2024-02-23T03:14:37;93857.31;;;3.31;100.00
11268;BME280;72685;47.474;9.416;2024-02-23T03:17:06;93847.13;;;3.38;100.00
11268;BME280;72685;47.474;9.416;2024-02-23T03:19:32;93853.75;;;3.35;100.00
11268;BME280;72685;47.474;9.416;2024-02-23T03:21:58;93853.47;;;3.37;100.00
11268;BME280;72685;47.474;9.416;2024-02-23T03:24:23;93853.94;;;3.39;100.00
11268;BME280;72685;47.474;9.416;2024-02-23T03:26:48;93854.13;;;3.42;100.00
11268;BME280;72685;47.474;9.416;2024-02-23T03:29:14;93851.97;;;3.44;100.00
11268;BME280;72685;47.474;9.416;2024-02-23T03:31:39;93864.59;;;3.47;100.00
11268;BME280;72685;47.474;9.416;2024-02-23T03:34:05;93862.28;;;3.54;100.00
11268;BME280;72685;47.474;9.416;2024-02-23T03:36:30;93862.03;;;3.64;100.00
11268;BME280;72685;47.474;9.416;2024-02-23T03:38:55;93859.47;;;3.73;100.00
11268;BME280;72685;47.474;9.416;2024-02-23T03:41:21;93856.06;;;3.81;100.00
11268;BME280;72685;47.474;9.416;2024-02-23T03:43:46;93843.03;;;3.85;100.00
11268;BME280;72685;47.474;9.416;2024-02-23T03:46:11;93835.91;;;3.85;100.00
11268;BME280;72685;47.474;9.416;2024-02-23T03:48:37;93841.44;;;3.75;100.00
11268;BME280;72685;47.474;9.416;2024-02-23T03:51:04;93848.59;;;3.74;100.00
11268;BME280;72685;47.474;9.416;2024-02-23T03:53:30;93842.09;;;3.81;100.00
11268;BME280;72685;47.474;9.416;2024-02-23T03:55:57;93830.44;;;3.82;100.00
11268;BME280;72685;47.474;9.416;2024-02-23T03:58:22;93835.28;;;3.88;100.00
11268;BME280;72685;47.474;9.416;2024-02-23T04:00:47;93832.03;;;3.91;100.00
11268;BME280;72685;47.474;9.416;2024-02-23T04:03:13;93840.44;;;3.93;100.00
11268;BME280;72685;47.474;9.416;2024-02-23T04:05:38;93833.63;;;3.92;100.00
11268;BME280;72685;47.474;9.416;2024-02-23T04:08:04;93834.50;;;3.88;100.00
11268;BME280;72685;47.474;9.416;2024-02-23T04:10:29;93836.81;;;3.81;100.00
11268;BME280;72685;47.474;9.416;2024-02-23T04:12:54;93838.03;;;3.74;100.00
11268;BME280;72685;47.474;9.416;2024-02-23T04:15:20;93836.50;;;3.82;100.00
11268;BME280;72685;47.474;9.416;2024-02-23T04:17:46;93839.97;;;3.91;100.00
11268;BME280;72685;47.474;9.416;2024-02-23T04:20:11;93824.38;;;3.81;100.00
11268;BME280;72685;47.474;9.416;2024-02-23T04:22:37;93818.63;;;3.79;100.00
11268;BME280;72685;47.474;9.416;2024-02-23T04:25:03;93824.84;;;3.83;100.00
11268;BME280;72685;47.474;9.416;2024-02-23T04:27:28;93825.09;;;3.95;100.00
11268;BME280;72685;47.474;9.416;2024-02-23T04:29:54;93819.47;;;3.97;100.00
11268;BME280;72685;47.474;9.416;2024-02-23T04:32:19;93821.66;;;3.95;100.00
11268;BME280;72685;47.474;9.416;2024-02-23T04:34:44;93836.25;;;3.92;100.00
11268;BME280;72685;47.474;9.416;2024-02-23T04:37:10;93840.31;;;3.98;100.00
11268;BME280;72685;47.474;9.416;2024-02-23T04:39:35;93823.88;;;4.01;100.00
11268;BME280;72685;47.474;9.416;2024-02-23T04:42:00;93807.56;;;4.08;100.00
11268;BME280;72685;47.474;9.416;2024-02-23T04:44:26;93818.88;;;4.00;100.00
11268;BME280;72685;47.474;9.416;2024-02-23T04:46:51;93824.75;;;3.97;100.00
11268;BME280;72685;47.474;9.416;2024-02-23T04:49:16;93829.59;;;3.95;100.00
11268;BME280;72685;47.474;9.416;2024-02-23T04:51:42;93830.19;;;3.92;100.00
11268;BME280;72685;47.474;9.416;2024-02-23T04:54:07;93837.19;;;3.96;100.00
11268;BME280;72685;47.474;9.416;2024-02-23T04:56:33;93851.22;;;4.05;100.00
11268;BME280;72685;47.474;9.416;2024-02-23T04:58:59;93854.63;;;4.06;100.00
11268;BME280;72685;47.474;9.416;2024-02-23T05:01:24;93856.38;;;4.10;100.00
11268;BME280;72685;47.474;9.416;2024-02-23T05:03:49;93853.28;;;4.08;100.00
11268;BME280;72685;47.474;9.416;2024-02-23T05:06:15;93851.69;;;3.99;100.00
11268;BME280;72685;47.474;9.416;2024-02-23T05:08:40;93840.94;;;3.95;100.00
11268;BME280;72685;47.474;9.416;2024-02-23T05:11:06;93851.34;;;4.00;100.00
11268;BME280;72685;47.474;9.416;2024-02-23T05:13:31;93856.66;;;4.00;100.00
11268;BME280;72685;47.474;9.416;2024-02-23T05:15:57;93850.16;;;4.06;100.00
11268;BME280;72685;47.474;9.416;2024-02-23T05:18:22;93839.09;;;4.04;100.00
11268;BME280;72685;47.474;9.416;2024-02-23T05:20:48;93835.97;;;4.02;100.00
11268;BME280;72685;47.474;9.416;2024-02-23T05:23:14;93841.13;;;4.07;100.00
11268;BME280;72685;47.474;9.416;2024-02-23T05:25:41;93830.75;;;4.19;100.00
11268;BME280;72685;47.474;9.416;2024-02-23T05:28:07;93833.66;;;4.09;100.00
11268;BME280;72685;47.474;9.416;2024-02-23T05:30:32;93827.13;;;4.07;100.00
11268;BME280;72685;47.474;9.416;2024-02-23T05:32:58;93830.53;;;3.99;100.00
11268;BME280;72685;47.474;9.416;2024-02-23T05:35:24;93826.34;;;4.06;100.00
11268;BME280;72685;47.474;9.416;2024-02-23T05:37:49;93820.59;;;4.04;100.00
11268;BME280;72685;47.474;9.416;2024-02-23T05:40:15;93832.72;;;4.05;100.00
11268;BME280;72685;47.474;9.416;2024-02-23T05:42:41;93821.06;;;4.06;100.00
11268;BME280;72685;47.474;9.416;2024-02-23T05:45:07;93819.56;;;4.14;100.00
11268;BME280;72685;47.474;9.416;2024-02-23T05:47:37;93837.88;;;4.10;100.00
11268;BME280;72685;47.474;9.416;2024-02-23T05:50:03;93840.66;;;4.05;100.00
11268;BME280;72685;47.474;9.416;2024-02-23T05:52:31;93829.50;;;4.08;100.00
11268;BME280;72685;47.474;9.416;2024-02-23T05:54:57;93827.31;;;4.10;100.00
11268;BME280;72685;47.474;9.416;2024-02-23T05:57:22;93809.09;;;4.09;100.00
11268;BME280;72685;47.474;9.416;2024-02-23T05:59:47;93818.31;;;4.11;100.00
11268;BME280;72685;47.474;9.416;2024-02-23T06:02:13;93820.16;;;4.11;100.00
11268;BME280;72685;47.474;9.416;2024-02-23T06:04:40;93809.63;;;4.19;100.00
11268;BME280;72685;47.474;9.416;2024-02-23T06:07:05;93800.56;;;4.12;100.00
11268;BME280;72685;47.474;9.416;2024-02-23T06:09:31;93798.09;;;4.15;100.00
11268;BME280;72685;47.474;9.416;2024-02-23T06:11:56;93811.63;;;4.14;100.00
11268;BME280;72685;47.474;9.416;2024-02-23T06:14:21;93836.66;;;4.16;100.00
11268;BME280;72685;47.474;9.416;2024-02-23T06:16:48;93839.47;;;4.20;100.00
11268;BME280;72685;47.474;9.416;2024-02-23T06:19:15;93852.38;;;4.21;100.00
11268;BME280;72685;47.474;9.416;2024-02-23T06:21:40;93849.28;;;4.19;100.00
11268;BME280;72685;47.474;9.416;2024-02-23T06:24:06;93847.41;;;4.20;100.00
11268;BME280;72685;47.474;9.416;2024-02-23T06:26:34;93833.25;;;4.24;100.00
11268;BME280;72685;47.474;9.416;2024-02-23T06:28:59;93846.00;;;4.22;100.00
11268;BME280;72685;47.474;9.416;2024-02-23T06:31:25;93851.13;;;4.19;100.00
11268;BME280;72685;47.474;9.416;2024-02-23T06:33:50;93843.16;;;4.10;100.00
11268;BME280;72685;47.474;9.416;2024-02-23T06:36:17;93848.13;;;4.12;100.00
11268;BME280;72685;47.474;9.416;2024-02-23T06:38:44;93838.34;;;4.12;100.00
11268;BME280;72685;47.474;9.416;2024-02-23T06:41:11;93831.81;;;4.10;100.00
11268;BME280;72685;47.474;9.416;2024-02-23T06:43:36;93829.34;;;4.13;100.00
11268;BME280;72685;47.474;9.416;2024-02-23T06:46:08;93832.16;;;4.17;100.00
11268;BME280;72685;47.474;9.416;2024-02-23T06:48:35;93845.06;;;4.18;100.00
11268;BME280;72685;47.474;9.416;2024-02-23T06:51:00;93822.66;;;4.16;100.00
11268;BME280;72685;47.474;9.416;2024-02-23T06:53:26;93825.81;;;4.26;100.00
11268;BME280;72685;47.474;9.416;2024-02-23T06:55:51;93824.44;;;4.29;100.00
11268;BME280;72685;47.474;9.416;2024-02-23T06:58:16;93844.97;;;4.32;100.00
11268;BME280;72685;47.474;9.416;2024-02-23T07:00:43;93856.16;;;4.29;99.91
11268;BME280;72685;47.474;9.416;2024-02-23T07:03:09;93853.94;;;4.22;100.00
11268;BME280;72685;47.474;9.416;2024-02-23T07:05:34;93851.75;;;4.24;99.43
11268;BME280;72685;47.474;9.416;2024-02-23T07:08:01;93851.94;;;4.28;99.88
11268;BME280;72685;47.474;9.416;2024-02-23T07:10:27;93844.16;;;4.23;100.00
11268;BME280;72685;47.474;9.416;2024-02-23T07:12:52;93829.09;;;4.32;99.84
11268;BME280;72685;47.474;9.416;2024-02-23T07:15:24;93811.53;;;4.36;96.29
11268;BME280;72685;47.474;9.416;2024-02-23T07:17:51;93813.56;;;4.39;95.93
11268;BME280;72685;47.474;9.416;2024-02-23T07:20:16;93825.13;;;4.52;97.41
11268;BME280;72685;47.474;9.416;2024-02-23T07:22:45;93830.69;;;4.50;96.90
11268;BME280;72685;47.474;9.416;2024-02-23T07:25:17;93834.41;;;4.41;97.54
11268;BME280;72685;47.474;9.416;2024-02-23T07:27:44;93837.22;;;4.44;96.19
11268;BME280;72685;47.474;9.416;2024-02-23T07:30:11;93842.94;;;4.38;98.12
11268;BME280;72685;47.474;9.416;2024-02-23T07:32:36;93853.06;;;4.36;98.34
11268;BME280;72685;47.474;9.416;2024-02-23T07:35:02;93872.75;;;4.21;99.75
11268;BME280;72685;47.474;9.416;2024-02-23T07:37:29;93869.03;;;4.22;100.00
11268;BME280;72685;47.474;9.416;2024-02-23T07:39:54;93858.59;;;4.17;100.00
11268;BME280;72685;47.474;9.416;2024-02-23T07:42:20;93858.94;;;4.24;99.26
11268;BME280;72685;47.474;9.416;2024-02-23T07:44:45;93862.84;;;4.35;97.33
11268;BME280;72685;47.474;9.416;2024-02-23T07:47:11;93867.69;;;4.33;98.56
11268;BME280;72685;47.474;9.416;2024-02-23T07:49:36;93866.44;;;4.31;98.36
11268;BME280;72685;47.474;9.416;2024-02-23T07:52:02;93874.81;;;4.33;98.71
11268;BME280;72685;47.474;9.416;2024-02-23T07:54:28;93868.31;;;4.39;96.94
11268;BME280;72685;47.474;9.416;2024-02-23T07:56:55;93863.97;;;4.43;95.10
11268;BME280;72685;47.474;9.416;2024-02-23T07:59:22;93850.75;;;4.43;94.69
11268;BME280;72685;47.474;9.416;2024-02-23T08:01:47;93872.53;;;4.40;94.34
11268;BME280;72685;47.474;9.416;2024-02-23T08:04:13;93874.22;;;4.36;95.12
11268;BME280;72685;47.474;9.416;2024-02-23T08:06:39;93862.56;;;4.37;91.58
11268;BME280;72685;47.474;9.416;2024-02-23T08:09:04;93860.22;;;4.44;93.25
11268;BME280;72685;47.474;9.416;2024-02-23T08:11:29;93855.72;;;4.44;94.30
11268;BME280;72685;47.474;9.416;2024-02-23T08:13:55;93859.16;;;4.45;94.25
11268;BME280;72685;47.474;9.416;2024-02-23T08:16:20;93856.22;;;4.46;93.06
11268;BME280;72685;47.474;9.416;2024-02-23T08:18:46;93854.03;;;4.48;93.50
11268;BME280;72685;47.474;9.416;2024-02-23T08:21:11;93862.44;;;4.50;94.41
11268;BME280;72685;47.474;9.416;2024-02-23T08:23:37;93857.47;;;4.49;92.95
11268;BME280;72685;47.474;9.416;2024-02-23T08:26:02;93852.19;;;4.49;92.94
11268;BME280;72685;47.474;9.416;2024-02-23T08:28:27;93860.88;;;4.49;94.10
11268;BME280;72685;47.474;9.416;2024-02-23T08:30:53;93873.66;;;4.56;94.89
11268;BME280;72685;47.474;9.416;2024-02-23T08:33:18;93881.00;;;4.59;94.19
11268;BME280;72685;47.474;9.416;2024-02-23T08:35:44;93878.97;;;4.64;92.99
11268;BME280;72685;47.474;9.416;2024-02-23T08:38:10;93858.44;;;4.61;92.79
11268;BME280;72685;47.474;9.416;2024-02-23T08:40:35;93856.41;;;4.58;93.27
11268;BME280;72685;47.474;9.416;2024-02-23T08:43:01;93863.88;;;4.65;92.28
11268;BME280;72685;47.474;9.416;2024-02-23T08:45:26;93861.84;;;4.62;92.65
11268;BME280;72685;47.474;9.416;2024-02-23T08:47:52;93869.13;;;4.56;89.89
11268;BME280;72685;47.474;9.416;2024-02-23T08:50:17;93864.50;;;4.62;86.96
11268;BME280;72685;47.474;9.416;2024-02-23T08:52:42;93872.16;;;4.72;87.83
11268;BME280;72685;47.474;9.416;2024-02-23T08:55:08;93872.16;;;4.72;87.36
11268;BME280;72685;47.474;9.416;2024-02-23T08:57:33;93863.56;;;4.66;89.89
11268;BME280;72685;47.474;9.416;2024-02-23T08:59:59;93868.06;;;4.66;93.20
11268;BME280;72685;47.474;9.416;2024-02-23T09:02:24;93853.47;;;4.77;89.11
11268;BME280;72685;47.474;9.416;2024-02-23T09:04:50;93859.88;;;4.85;86.59
11268;BME280;72685;47.474;9.416;2024-02-23T09:07:16;93864.06;;;4.77;85.68
11268;BME280;72685;47.474;9.416;2024-02-23T09:09:43;93863.47;;;4.89;87.72
11268;BME280;72685;47.474;9.416;2024-02-23T09:14:36;93844.94;;;4.80;nan
11268;BME280;72685;47.474;9.416;2024-02-23T09:17:03;93866.91;;;4.98;nan
11268;BME280;72685;47.474;9.416;2024-02-23T09:19:29;93873.13;;;5.02;nan
11268;BME280;72685;47.474;9.416;2024-02-23T09:21:55;93873.44;;;5.00;nan
11268;BME280;72685;47.474;9.416;2024-02-23T09:24:21;93869.56;;;5.06;nan
11268;BME280;72685;47.474;9.416;2024-02-23T09:26:47;93872.69;;;5.17;nan
11268;BME280;72685;47.474;9.416;2024-02-23T09:29:13;93872.22;;;5.23;nan
11268;BME280;72685;47.474;9.416;2024-02-23T09:31:38;93866.44;;;5.30;nan
11268;BME280;72685;47.474;9.416;2024-02-23T09:34:04;93866.16;;;5.31;nan
11268;BME280;72685;47.474;9.416;2024-02-23T09:36:29;93865.97;;;5.37;nan
11268;BME280;72685;47.474;9.416;2024-02-23T09:38:55;93866.47;;;5.39;nan
11268;BME280;72685;47.474;9.416;2024-02-23T09:41:22;93868.00;;;5.40;nan
11268;BME280;72685;47.474;9.416;2024-02-23T09:43:48;93865.69;;;5.29;nan
11268;BME280;72685;47.474;9.416;2024-02-23T09:46:18;93864.91;;;5.29;nan
11268;BME280;72685;47.474;9.416;2024-02-23T09:48:44;93854.63;;;5.27;nan
11268;BME280;72685;47.474;9.416;2024-02-23T09:51:10;93860.84;;;5.40;nan
11268;BME280;72685;47.474;9.416;2024-02-23T09:53:37;93860.38;;;5.38;nan
11268;BME280;72685;47.474;9.416;2024-02-23T09:56:04;93856.34;;;5.32;nan
11268;BME280;72685;47.474;9.416;2024-02-23T09:58:31;93859.13;;;5.44;nan
11268;BME280;72685;47.474;9.416;2024-02-23T10:00:58;93856.94;;;5.46;nan
11268;BME280;72685;47.474;9.416;2024-02-23T10:03:27;93867.53;;;5.46;nan
11268;BME280;72685;47.474;9.416;2024-02-23T10:05:56;93871.94;;;5.42;nan
11268;BME280;72685;47.474;9.416;2024-02-23T10:08:22;93873.78;;;5.42;nan
11268;BME280;72685;47.474;9.416;2024-02-23T10:10:47;93875.78;;;5.36;nan
11268;BME280;72685;47.474;9.416;2024-02-23T10:13:19;93872.22;;;5.32;nan
11268;BME280;72685;47.474;9.416;2024-02-23T10:15:47;93864.44;;;5.44;nan
11268;BME280;72685;47.474;9.416;2024-02-23T10:18:13;93860.38;;;5.47;nan
11268;BME280;72685;47.474;9.416;2024-02-23T10:20:39;93851.97;;;5.45;nan
11268;BME280;72685;47.474;9.416;2024-02-23T10:23:05;93860.88;;;5.49;nan
11268;BME280;72685;47.474;9.416;2024-02-23T10:25:33;93869.75;;;5.36;nan
11268;BME280;72685;47.474;9.416;2024-02-23T10:28:01;93874.09;;;5.31;nan
11268;BME280;72685;47.474;9.416;2024-02-23T10:30:27;93870.66;;;5.31;nan
11268;BME280;72685;47.474;9.416;2024-02-23T10:32:55;93865.69;;;5.38;nan
11268;BME280;72685;47.474;9.416;2024-02-23T10:35:22;93854.91;;;5.43;nan
11268;BME280;72685;47.474;9.416;2024-02-23T10:37:48;93859.28;;;5.48;nan
11268;BME280;72685;47.474;9.416;2024-02-23T10:40:18;93858.03;;;5.62;nan
11268;BME280;72685;47.474;9.416;2024-02-23T10:42:44;93858.34;;;5.61;nan
11268;BME280;72685;47.474;9.416;2024-02-23T10:45:16;93867.56;;;5.55;nan
11268;BME280;72685;47.474;9.416;2024-02-23T10:47:42;93865.81;;;5.67;nan
11268;BME280;72685;47.474;9.416;2024-02-23T10:50:09;93866.72;;;5.71;nan
11268;BME280;72685;47.474;9.416;2024-02-23T10:52:35;93858.19;;;5.66;nan
11268;BME280;72685;47.474;9.416;2024-02-23T10:55:01;93865.50;;;5.77;nan
11268;BME280;72685;47.474;9.416;2024-02-23T10:57:34;93876.72;;;5.66;nan
11268;BME280;72685;47.474;9.416;2024-02-23T11:00:00;93857.38;;;5.65;nan
11268;BME280;72685;47.474;9.416;2024-02-23T11:02:27;93862.09;;;5.60;nan
11268;BME280;72685;47.474;9.416;2024-02-23T11:04:55;93861.16;;;5.64;nan
11268;BME280;72685;47.474;9.416;2024-02-23T11:07:22;93854.44;;;5.67;nan
11268;BME280;72685;47.474;9.416;2024-02-23T11:10:00;93856.19;;;5.54;nan
11268;BME280;72685;47.474;9.416;2024-02-23T11:12:28;93849.78;;;5.64;nan
11268;BME280;72685;47.474;9.416;2024-02-23T11:14:58;93841.03;;;5.72;nan
11268;BME280;72685;47.474;9.416;2024-02-23T11:17:30;93842.09;;;5.79;nan
11268;BME280;72685;47.474;9.416;2024-02-23T11:19:56;93843.03;;;5.92;nan
11268;BME280;72685;47.474;9.416;2024-02-23T11:22:26;93837.75;;;5.92;nan
11268;BME280;72685;47.474;9.416;2024-02-23T11:24:52;93838.34;;;5.98;nan
11268;BME280;72685;47.474;9.416;2024-02-23T11:27:17;93840.34;;;6.09;nan
11268;BME280;72685;47.474;9.416;2024-02-23T11:29:46;93832.41;;;6.09;nan
11268;BME280;72685;47.474;9.416;2024-02-23T11:32:15;93831.34;;;5.93;nan
11268;BME280;72685;47.474;9.416;2024-02-23T11:34:41;93835.09;;;5.92;nan
11268;BME280;72685;47.474;9.416;2024-02-23T11:37:09;93841.63;;;5.95;nan
11268;BME280;72685;47.474;9.416;2024-02-23T11:39:37;93831.16;;;5.98;nan
11268;BME280;72685;47.474;9.416;2024-02-23T11:42:04;93822.06;;;6.16;nan
11268;BME280;72685;47.474;9.416;2024-02-23T11:44:29;93823.28;;;6.27;nan
11268;BME280;72685;47.474;9.416;2024-02-23T11:46:55;93825.94;;;6.27;nan
11268;BME280;72685;47.474;9.416;2024-02-23T11:49:27;93828.38;;;6.32;nan
11268;BME280;72685;47.474;9.416;2024-02-23T11:51:53;93820.91;;;6.34;nan
11268;BME280;72685;47.474;9.416;2024-02-23T11:54:18;93834.53;;;6.54;nan
11268;BME280;72685;47.474;9.416;2024-02-23T11:56:44;93835.63;;;6.53;nan
11268;BME280;72685;47.474;9.416;2024-02-23T11:59:10;93835.94;;;6.51;nan
11268;BME280;72685;47.474;9.416;2024-02-23T12:01:37;93833.28;;;6.51;nan
11268;BME280;72685;47.474;9.416;2024-02-23T12:04:02;93827.31;;;6.33;nan
11268;BME280;72685;47.474;9.416;2024-02-23T12:06:29;93818.41;;;6.29;nan
11268;BME280;72685;47.474;9.416;2024-02-23T12:08:56;93816.06;;;6.36;nan
11268;BME280;72685;47.474;9.416;2024-02-23T12:11:22;93814.78;;;6.43;nan
11268;BME280;72685;47.474;9.416;2024-02-23T12:13:47;93813.78;;;6.56;nan
11268;BME280;72685;47.474;9.416;2024-02-23T12:16:14;93812.63;;;6.65;nan
11268;BME280;72685;47.474;9.416;2024-02-23T12:18:39;93816.34;;;6.73;nan
11268;BME280;72685;47.474;9.416;2024-02-23T12:21:06;93816.00;;;6.74;nan
11268;BME280;72685;47.474;9.416;2024-02-23T12:23:42;93815.56;;;6.72;nan
11268;BME280;72685;47.474;9.416;2024-02-23T12:26:09;93808.53;;;6.68;nan
11268;BME280;72685;47.474;9.416;2024-02-23T12:28:35;93805.66;;;6.81;nan
11268;BME280;72685;47.474;9.416;2024-02-23T12:31:02;93812.41;;;6.79;nan
11268;BME280;72685;47.474;9.416;2024-02-23T12:33:29;93812.53;;;6.82;nan
11268;BME280;72685;47.474;9.416;2024-02-23T12:35:56;93806.22;;;6.87;nan
11268;BME280;72685;47.474;9.416;2024-02-23T12:38:23;93801.41;;;6.89;nan
11268;BME280;72685;47.474;9.416;2024-02-23T12:40:48;93805.59;;;6.90;nan
11268;BME280;72685;47.474;9.416;2024-02-23T12:43:14;93809.19;;;6.65;nan
11268;BME280;72685;47.474;9.416;2024-02-23T12:45:39;93794.47;;;6.76;nan
11268;BME280;72685;47.474;9.416;2024-02-23T12:48:05;93788.56;;;6.91;nan
11268;BME280;72685;47.474;9.416;2024-02-23T12:50:31;93785.91;;;6.91;nan
11268;BME280;72685;47.474;9.416;2024-02-23T12:52:57;93772.13;;;6.98;nan
11268;BME280;72685;47.474;9.416;2024-02-23T12:55:23;93780.19;;;7.22;nan
11268;BME280;72685;47.474;9.416;2024-02-23T12:57:48;93781.53;;;7.28;nan
11268;BME280;72685;47.474;9.416;2024-02-23T13:00:14;93775.53;;;7.19;nan
11268;BME280;72685;47.474;9.416;2024-02-23T13:02:40;93772.34;;;7.25;nan
11268;BME280;72685;47.474;9.416;2024-02-23T13:05:05;93774.34;;;7.28;nan
11268;BME280;72685;47.474;9.416;2024-02-23T13:07:32;93768.50;;;7.56;nan
11268;BME280;72685;47.474;9.416;2024-02-23T13:09:57;93775.41;;;7.36;nan